createdAt,value
2022-11-07T00:00:44.953Z,0.00
2022-11-07T00:01:42.822Z,0.00
2022-11-07T00:02:41.847Z,0.00
2022-11-07T00:03:41.791Z,0.00
2022-11-07T00:04:41.792Z,0.00
2022-11-07T00:05:41.768Z,0.00
2022-11-07T00:06:41.753Z,0.00
2022-11-07T00:07:41.726Z,0.00
2022-11-07T00:08:41.739Z,0.00
2022-11-07T00:09:41.715Z,0.00
2022-11-07T00:10:41.708Z,0.00
2022-11-07T00:11:41.717Z,0.00
2022-11-07T00:12:41.693Z,0.00
2022-11-07T00:13:41.663Z,0.00
2022-11-07T00:14:41.676Z,0.00
2022-11-07T00:15:41.658Z,0.00
2022-11-07T00:16:41.648Z,0.00
2022-11-07T00:17:41.647Z,0.00
2022-11-07T00:18:41.654Z,0.00
2022-11-07T00:19:41.602Z,0.00
2022-11-07T00:20:41.605Z,0.00
2022-11-07T00:21:41.570Z,0.00
2022-11-07T00:22:43.513Z,0.00
2022-11-07T00:23:41.715Z,0.00
2022-11-07T00:24:41.562Z,0.00
2022-11-07T00:25:41.525Z,0.00
2022-11-07T00:26:41.906Z,0.00
2022-11-07T00:27:41.560Z,0.00
2022-11-07T00:28:41.575Z,0.00
2022-11-07T00:29:41.566Z,0.00
2022-11-07T00:30:41.504Z,0.00
2022-11-07T00:31:41.521Z,0.00
2022-11-07T00:32:41.467Z,0.00
2022-11-07T00:33:41.463Z,0.00
2022-11-07T00:34:41.477Z,0.00
2022-11-07T00:35:41.416Z,0.00
2022-11-07T00:36:41.423Z,0.00
2022-11-07T00:37:41.416Z,0.00
2022-11-07T00:38:41.462Z,0.00
2022-11-07T00:39:42.140Z,0.00
2022-11-07T00:40:41.392Z,0.00
2022-11-07T00:41:41.373Z,0.00
2022-11-07T00:42:41.340Z,0.00
2022-11-07T00:43:41.356Z,0.00
2022-11-07T00:44:41.339Z,0.00
2022-11-07T00:45:41.322Z,0.00
2022-11-07T00:46:41.313Z,0.00
2022-11-07T00:47:41.303Z,0.00
2022-11-07T00:48:41.293Z,0.00
2022-11-07T00:49:41.270Z,0.00
2022-11-07T00:50:41.261Z,0.00
2022-11-07T00:51:41.247Z,0.00
2022-11-07T00:52:41.275Z,0.00
2022-11-07T00:53:41.228Z,0.00
2022-11-07T00:54:41.243Z,0.00
2022-11-07T00:55:41.243Z,0.00
2022-11-07T00:56:41.200Z,0.00
2022-11-07T00:57:41.233Z,0.00
2022-11-07T00:58:41.193Z,0.00
2022-11-07T00:59:41.173Z,0.00
2022-11-07T01:00:41.209Z,0.00
2022-11-07T01:01:41.230Z,0.00
2022-11-07T01:02:41.343Z,0.00
2022-11-07T01:03:41.119Z,0.00
2022-11-07T01:04:41.098Z,0.00
2022-11-07T01:05:41.104Z,0.00
2022-11-07T01:06:41.096Z,0.00
2022-11-07T01:07:41.074Z,0.00
2022-11-07T01:08:41.050Z,0.00
2022-11-07T01:09:41.048Z,0.00
2022-11-07T01:10:41.059Z,0.00
2022-11-07T01:11:41.019Z,0.00
2022-11-07T01:12:41.027Z,0.00
2022-11-07T01:13:41.015Z,0.00
2022-11-07T01:14:40.995Z,0.00
2022-11-07T01:15:41.003Z,0.00
2022-11-07T01:16:40.979Z,0.00
2022-11-07T01:17:40.964Z,0.00
2022-11-07T01:18:40.957Z,0.00
2022-11-07T01:19:40.950Z,0.00
2022-11-07T01:20:40.997Z,0.00
2022-11-07T01:21:40.928Z,0.00
2022-11-07T01:22:40.930Z,0.00
2022-11-07T01:23:40.889Z,0.00
2022-11-07T01:24:40.886Z,0.00
2022-11-07T01:25:40.895Z,0.00
2022-11-07T01:26:40.891Z,0.00
2022-11-07T01:27:40.888Z,0.00
2022-11-07T01:28:40.837Z,0.00
2022-11-07T01:29:40.844Z,0.00
2022-11-07T01:30:40.834Z,0.00
2022-11-07T01:31:40.824Z,0.00
2022-11-07T01:32:40.825Z,0.00
2022-11-07T01:33:40.800Z,0.00
2022-11-07T01:34:40.810Z,0.00
2022-11-07T01:35:40.748Z,0.00
2022-11-07T01:36:40.783Z,0.00
2022-11-07T01:37:40.843Z,0.00
2022-11-07T01:38:40.748Z,0.00
2022-11-07T01:39:40.715Z,0.00
2022-11-07T01:40:40.721Z,0.00
2022-11-07T01:41:40.694Z,0.00
2022-11-07T01:42:40.694Z,0.00
2022-11-07T01:43:40.687Z,0.00
2022-11-07T01:44:40.679Z,0.00
2022-11-07T01:45:40.657Z,0.00
2022-11-07T01:46:40.676Z,0.00
2022-11-07T01:47:40.612Z,0.00
2022-11-07T01:48:40.605Z,0.00
2022-11-07T01:49:40.629Z,0.00
2022-11-07T01:50:40.583Z,0.00
2022-11-07T01:51:40.573Z,0.00
2022-11-07T01:52:40.568Z,0.00
2022-11-07T01:53:40.556Z,0.00
2022-11-07T01:54:40.592Z,0.00
2022-11-07T01:55:40.523Z,0.00
2022-11-07T01:56:40.548Z,0.00
2022-11-07T01:57:40.547Z,0.00
2022-11-07T01:58:40.503Z,0.00
2022-11-07T01:59:40.482Z,0.00
2022-11-07T02:00:40.513Z,0.00
2022-11-07T02:01:40.568Z,0.00
2022-11-07T02:02:40.613Z,0.00
2022-11-07T02:03:40.442Z,0.00
2022-11-07T02:04:40.456Z,0.00
2022-11-07T02:05:40.424Z,0.00
2022-11-07T02:06:40.443Z,0.00
2022-11-07T02:07:40.392Z,0.00
2022-11-07T02:08:40.384Z,0.00
2022-11-07T02:09:40.404Z,0.00
2022-11-07T02:10:40.405Z,0.00
2022-11-07T02:11:40.352Z,0.00
2022-11-07T02:12:40.352Z,0.00
2022-11-07T02:13:40.340Z,0.00
2022-11-07T02:14:40.351Z,0.00
2022-11-07T02:15:40.315Z,0.00
2022-11-07T02:16:40.311Z,0.00
2022-11-07T02:17:40.306Z,0.00
2022-11-07T02:18:40.322Z,0.00
2022-11-07T02:19:40.284Z,0.00
2022-11-07T02:20:40.271Z,0.00
2022-11-07T02:21:40.249Z,0.00
2022-11-07T02:22:40.264Z,0.00
2022-11-07T02:23:40.222Z,0.00
2022-11-07T02:24:40.222Z,0.00
2022-11-07T02:25:40.203Z,0.00
2022-11-07T02:26:40.181Z,0.00
2022-11-07T02:27:40.214Z,0.00
2022-11-07T02:28:40.203Z,0.00
2022-11-07T02:29:40.173Z,0.00
2022-11-07T02:30:40.172Z,0.00
2022-11-07T02:31:40.172Z,0.00
2022-11-07T02:32:40.150Z,0.00
2022-11-07T02:33:40.153Z,0.00
2022-11-07T02:34:40.133Z,0.00
2022-11-07T02:35:40.117Z,0.00
2022-11-07T02:36:40.092Z,0.00
2022-11-07T02:37:40.093Z,0.00
2022-11-07T02:38:40.084Z,0.00
2022-11-07T02:39:40.069Z,0.00
2022-11-07T02:40:40.029Z,0.00
2022-11-07T02:41:40.018Z,0.00
2022-11-07T02:42:40.029Z,0.00
2022-11-07T02:43:40.012Z,0.00
2022-11-07T02:44:40.015Z,0.00
2022-11-07T02:45:39.988Z,0.00
2022-11-07T02:46:39.992Z,0.00
2022-11-07T02:47:39.955Z,0.00
2022-11-07T02:48:39.941Z,0.00
2022-11-07T02:49:39.963Z,0.00
2022-11-07T02:50:39.938Z,0.00
2022-11-07T02:51:39.916Z,0.00
2022-11-07T02:52:40.009Z,0.00
2022-11-07T02:53:39.879Z,0.00
2022-11-07T02:54:39.887Z,0.00
2022-11-07T02:55:39.885Z,0.00
2022-11-07T02:56:39.862Z,0.00
2022-11-07T02:57:39.840Z,0.00
2022-11-07T02:58:39.845Z,0.00
2022-11-07T02:59:39.852Z,0.00
2022-11-07T03:00:39.839Z,0.00
2022-11-07T03:01:39.981Z,0.00
2022-11-07T03:02:39.985Z,0.00
2022-11-07T03:03:39.776Z,0.00
2022-11-07T03:04:39.922Z,0.00
2022-11-07T03:05:39.771Z,0.00
2022-11-07T03:06:39.779Z,0.00
2022-11-07T03:07:39.741Z,0.00
2022-11-07T03:08:40.125Z,0.00
2022-11-07T03:09:39.756Z,0.00
2022-11-07T03:10:39.695Z,0.00
2022-11-07T03:11:39.689Z,0.00
2022-11-07T03:12:39.709Z,0.00
2022-11-07T03:13:39.667Z,0.00
2022-11-07T03:14:39.701Z,0.00
2022-11-07T03:15:39.661Z,0.00
2022-11-07T03:16:39.632Z,0.00
2022-11-07T03:17:39.639Z,0.00
2022-11-07T03:18:39.628Z,0.00
2022-11-07T03:19:39.678Z,0.00
2022-11-07T03:20:39.609Z,0.00
2022-11-07T03:21:39.609Z,0.00
2022-11-07T03:22:39.573Z,0.00
2022-11-07T03:23:39.606Z,0.00
2022-11-07T03:24:39.595Z,0.00
2022-11-07T03:25:39.544Z,0.00
2022-11-07T03:26:39.547Z,0.00
2022-11-07T03:27:39.506Z,0.00
2022-11-07T03:28:39.514Z,0.00
2022-11-07T03:29:39.515Z,0.00
2022-11-07T03:30:39.519Z,0.00
2022-11-07T03:31:39.507Z,0.00
2022-11-07T03:32:39.470Z,0.00
2022-11-07T03:33:40.198Z,0.00
2022-11-07T03:34:40.208Z,0.00
2022-11-07T03:35:39.476Z,0.00
2022-11-07T03:36:39.419Z,0.00
2022-11-07T03:37:39.422Z,0.00
2022-11-07T03:38:39.381Z,0.00
2022-11-07T03:39:39.406Z,0.00
2022-11-07T03:40:39.374Z,0.00
2022-11-07T03:41:39.365Z,0.00
2022-11-07T03:42:39.352Z,0.00
2022-11-07T03:43:39.357Z,0.00
2022-11-07T03:44:39.370Z,0.00
2022-11-07T03:45:39.327Z,0.00
2022-11-07T03:46:39.320Z,0.00
2022-11-07T03:47:39.305Z,0.00
2022-11-07T03:48:39.271Z,0.00
2022-11-07T03:49:39.306Z,0.00
2022-11-07T03:50:39.295Z,0.00
2022-11-07T03:51:39.252Z,0.00
2022-11-07T03:52:39.245Z,0.00
2022-11-07T03:53:39.257Z,0.00
2022-11-07T03:54:39.270Z,0.00
2022-11-07T03:55:39.294Z,0.00
2022-11-07T03:56:39.223Z,0.00
2022-11-07T03:57:39.216Z,0.00
2022-11-07T03:58:39.186Z,0.00
2022-11-07T03:59:39.163Z,0.00
2022-11-07T04:00:39.196Z,0.00
2022-11-07T04:01:39.283Z,0.00
2022-11-07T04:02:39.317Z,0.00
2022-11-07T04:03:39.110Z,0.00
2022-11-07T04:04:39.125Z,0.00
2022-11-07T04:05:39.126Z,0.00
2022-11-07T04:06:39.113Z,0.00
2022-11-07T04:07:39.140Z,0.00
2022-11-07T04:08:39.074Z,0.00
2022-11-07T04:09:39.072Z,0.00
2022-11-07T04:10:39.080Z,0.00
2022-11-07T04:11:39.039Z,0.00
2022-11-07T04:12:39.033Z,0.00
2022-11-07T04:13:39.032Z,0.00
2022-11-07T04:14:39.030Z,0.00
2022-11-07T04:15:38.987Z,0.00
2022-11-07T04:16:39.005Z,0.00
2022-11-07T04:17:39.032Z,0.00
2022-11-07T04:18:38.938Z,0.00
2022-11-07T04:19:38.962Z,0.00
2022-11-07T04:20:38.961Z,0.00
2022-11-07T04:21:38.967Z,0.00
2022-11-07T04:22:38.932Z,0.00
2022-11-07T04:23:38.889Z,0.00
2022-11-07T04:24:44.469Z,0.00
2022-11-07T04:25:39.878Z,0.00
2022-11-07T04:26:38.884Z,0.00
2022-11-07T04:27:38.884Z,0.00
2022-11-07T04:28:38.848Z,0.00
2022-11-07T04:29:38.842Z,0.00
2022-11-07T04:30:39.276Z,0.00
2022-11-07T04:31:38.808Z,0.00
2022-11-07T04:32:38.822Z,0.00
2022-11-07T04:33:38.822Z,0.00
2022-11-07T04:34:38.816Z,0.00
2022-11-07T04:35:38.780Z,0.00
2022-11-07T04:36:38.745Z,0.00
2022-11-07T04:37:38.751Z,0.00
2022-11-07T04:38:38.769Z,0.00
2022-11-07T04:39:38.731Z,0.00
2022-11-07T04:40:38.702Z,0.00
2022-11-07T04:41:38.710Z,0.00
2022-11-07T04:42:38.687Z,0.00
2022-11-07T04:43:38.700Z,0.00
2022-11-07T04:44:38.676Z,0.00
2022-11-07T04:45:38.671Z,0.00
2022-11-07T04:46:38.674Z,0.00
2022-11-07T04:47:40.592Z,0.00
2022-11-07T04:48:38.639Z,0.00
2022-11-07T04:49:38.643Z,0.00
2022-11-07T04:50:38.643Z,0.00
2022-11-07T04:51:38.626Z,0.00
2022-11-07T04:52:38.614Z,0.00
2022-11-07T04:53:38.648Z,0.00
2022-11-07T04:54:38.654Z,0.00
2022-11-07T04:55:38.559Z,0.00
2022-11-07T04:56:38.566Z,0.00
2022-11-07T04:57:38.551Z,0.00
2022-11-07T04:58:38.496Z,0.00
2022-11-07T04:59:38.513Z,0.00
2022-11-07T05:00:38.482Z,0.00
2022-11-07T05:01:38.510Z,0.00
2022-11-07T05:02:38.520Z,0.00
2022-11-07T05:03:41.887Z,0.00
2022-11-07T05:04:38.434Z,0.00
2022-11-07T05:05:38.448Z,0.00
2022-11-07T05:06:38.478Z,0.00
2022-11-07T05:07:38.418Z,0.00
2022-11-07T05:08:38.414Z,0.00
2022-11-07T05:09:38.397Z,0.00
2022-11-07T05:10:38.374Z,0.00
2022-11-07T05:11:38.387Z,0.00
2022-11-07T05:12:38.367Z,0.00
2022-11-07T05:13:38.388Z,0.00
2022-11-07T05:14:38.336Z,0.00
2022-11-07T05:15:38.345Z,0.00
2022-11-07T05:16:38.316Z,0.00
2022-11-07T05:17:38.337Z,0.00
2022-11-07T05:18:38.409Z,0.00
2022-11-07T05:19:38.335Z,0.00
2022-11-07T05:20:38.293Z,0.00
2022-11-07T05:21:38.253Z,0.00
2022-11-07T05:22:38.264Z,0.00
2022-11-07T05:23:38.250Z,0.00
2022-11-07T05:24:38.234Z,0.00
2022-11-07T05:25:38.225Z,0.00
2022-11-07T05:26:38.220Z,0.00
2022-11-07T05:27:38.192Z,0.00
2022-11-07T05:28:39.789Z,0.00
2022-11-07T05:29:38.215Z,0.00
2022-11-07T05:30:38.166Z,0.00
2022-11-07T05:31:38.141Z,0.00
2022-11-07T05:32:38.181Z,0.00
2022-11-07T05:33:38.121Z,0.00
2022-11-07T05:34:38.134Z,0.00
2022-11-07T05:35:38.129Z,0.00
2022-11-07T05:36:38.095Z,0.00
2022-11-07T05:37:38.084Z,0.00
2022-11-07T05:38:38.102Z,0.00
2022-11-07T05:39:38.076Z,0.00
2022-11-07T05:40:38.066Z,0.00
2022-11-07T05:41:38.023Z,0.00
2022-11-07T05:42:38.076Z,0.00
2022-11-07T05:43:38.001Z,0.00
2022-11-07T05:44:38.033Z,0.00
2022-11-07T05:45:37.993Z,0.00
2022-11-07T05:46:38.008Z,0.00
2022-11-07T05:47:38.014Z,0.00
2022-11-07T05:48:37.956Z,0.00
2022-11-07T05:49:37.985Z,0.00
2022-11-07T05:50:37.934Z,0.00
2022-11-07T05:51:37.938Z,0.00
2022-11-07T05:52:37.923Z,0.00
2022-11-07T05:53:38.001Z,0.00
2022-11-07T05:54:37.889Z,0.00
2022-11-07T05:55:37.909Z,0.00
2022-11-07T05:56:37.883Z,0.00
2022-11-07T05:57:37.850Z,0.00
2022-11-07T05:58:37.852Z,0.00
2022-11-07T05:59:37.843Z,0.00
2022-11-07T06:00:37.853Z,0.00
2022-11-07T06:01:37.947Z,0.00
2022-11-07T06:02:37.908Z,0.00
2022-11-07T06:03:37.812Z,0.00
2022-11-07T06:04:37.778Z,0.00
2022-11-07T06:05:37.802Z,0.00
2022-11-07T06:06:37.768Z,0.00
2022-11-07T06:11:20.765Z,0.00
2022-11-07T06:12:20.684Z,0.00
2022-11-07T06:13:20.693Z,0.00
2022-11-07T06:14:20.683Z,0.00
2022-11-07T06:15:20.670Z,0.00
2022-11-07T06:16:20.675Z,0.00
2022-11-07T06:17:20.676Z,0.00
2022-11-07T06:18:20.668Z,0.00
2022-11-07T06:19:20.618Z,0.00
2022-11-07T06:20:20.618Z,0.00
2022-11-07T06:21:20.592Z,0.00
2022-11-07T06:22:20.598Z,0.00
2022-11-07T06:23:20.663Z,0.00
2022-11-07T06:24:20.577Z,0.00
2022-11-07T06:25:20.556Z,0.00
2022-11-07T06:26:20.551Z,0.00
2022-11-07T06:27:20.537Z,0.00
2022-11-07T06:28:20.538Z,0.00
2022-11-07T06:29:20.507Z,0.00
2022-11-07T06:30:20.490Z,0.00
2022-11-07T06:31:20.487Z,0.00
2022-11-07T06:32:20.510Z,0.00
2022-11-07T06:33:20.735Z,0.00
2022-11-07T06:34:20.468Z,0.00
2022-11-07T06:35:20.459Z,0.00
2022-11-07T06:36:20.435Z,0.00
2022-11-07T06:37:20.424Z,0.00
2022-11-07T06:38:20.446Z,0.00
2022-11-07T06:39:20.407Z,0.00
2022-11-07T06:40:20.411Z,0.00
2022-11-07T06:41:20.383Z,0.00
2022-11-07T06:42:20.362Z,0.00
2022-11-07T06:43:20.832Z,0.00
2022-11-07T06:44:20.361Z,0.00
2022-11-07T06:45:20.353Z,0.00
2022-11-07T06:46:20.365Z,0.00
2022-11-07T06:47:20.314Z,0.00
2022-11-07T06:48:20.315Z,0.00
2022-11-07T06:49:20.314Z,0.00
2022-11-07T06:50:20.294Z,0.00
2022-11-07T06:51:20.263Z,0.00
2022-11-07T06:52:20.249Z,0.00
2022-11-07T06:53:20.386Z,0.00
2022-11-07T06:54:20.274Z,0.00
2022-11-07T06:55:20.234Z,0.00
2022-11-07T06:56:20.202Z,0.00
2022-11-07T06:57:20.208Z,0.00
2022-11-07T06:58:20.199Z,0.00
2022-11-07T06:59:20.172Z,0.00
2022-11-07T07:00:20.191Z,0.00
2022-11-07T07:01:20.211Z,0.00
2022-11-07T07:02:37.308Z,0.00
2022-11-07T07:03:21.192Z,0.00
2022-11-07T07:04:20.120Z,0.00
2022-11-07T07:05:21.350Z,0.00
2022-11-07T07:06:20.138Z,0.00
2022-11-07T07:07:20.093Z,0.00
2022-11-07T07:08:20.077Z,0.00
2022-11-07T07:09:20.071Z,0.00
2022-11-07T07:10:20.060Z,0.00
2022-11-07T07:11:20.078Z,0.00
2022-11-07T07:12:20.053Z,0.00
2022-11-07T07:13:20.042Z,0.00
2022-11-07T07:14:20.023Z,0.00
2022-11-07T07:15:20.033Z,0.00
2022-11-07T07:16:19.990Z,0.00
2022-11-07T07:17:19.987Z,0.00
2022-11-07T07:18:19.983Z,0.00
2022-11-07T07:19:19.989Z,0.00
2022-11-07T07:20:19.963Z,0.00
2022-11-07T07:21:19.944Z,0.00
2022-11-07T07:22:19.946Z,0.00
2022-11-07T07:23:20.291Z,0.00
2022-11-07T07:24:19.898Z,0.00
2022-11-07T07:25:19.887Z,0.00
2022-11-07T07:26:19.892Z,0.00
2022-11-07T07:27:19.887Z,0.00
2022-11-07T07:28:19.882Z,0.00
2022-11-07T07:29:19.849Z,0.00
2022-11-07T07:30:19.841Z,0.00
2022-11-07T07:31:19.840Z,0.00
2022-11-07T07:32:19.821Z,0.00
2022-11-07T07:33:19.819Z,0.00
2022-11-07T07:34:19.811Z,0.00
2022-11-07T07:35:19.780Z,0.00
2022-11-07T07:36:21.096Z,0.00
2022-11-07T07:37:19.800Z,0.00
2022-11-07T07:38:19.761Z,0.00
2022-11-07T07:39:19.737Z,0.00
2022-11-07T07:40:19.751Z,0.00
2022-11-07T07:41:19.713Z,0.00
2022-11-07T07:42:19.706Z,0.00
2022-11-07T07:43:19.782Z,0.00
2022-11-07T07:44:19.677Z,4.00
2022-11-07T07:45:19.689Z,4.00
2022-11-07T07:46:19.657Z,4.00
2022-11-07T07:47:19.650Z,0.00
2022-11-07T07:48:19.636Z,4.00
2022-11-07T07:49:19.628Z,0.00
2022-11-07T07:50:19.631Z,4.00
2022-11-07T07:51:19.609Z,4.00
2022-11-07T07:52:19.586Z,4.00
2022-11-07T07:53:19.623Z,4.00
2022-11-07T07:54:19.598Z,4.00
2022-11-07T07:55:19.569Z,4.00
2022-11-07T07:56:19.560Z,4.00
2022-11-07T07:57:19.556Z,0.00
2022-11-07T07:58:19.527Z,4.00
2022-11-07T07:59:19.542Z,4.00
2022-11-07T08:00:19.528Z,0.00
2022-11-07T08:01:19.534Z,0.00
2022-11-07T08:02:19.621Z,0.00
2022-11-07T08:03:19.726Z,0.00
2022-11-07T08:04:19.499Z,0.00
2022-11-07T08:05:19.454Z,0.00
2022-11-07T08:06:19.468Z,0.00
2022-11-07T08:07:19.448Z,0.00
2022-11-07T08:08:19.437Z,0.00
2022-11-07T08:09:19.421Z,4.00
2022-11-07T08:11:20.375Z,4.00
2022-11-07T08:12:19.400Z,0.00
2022-11-07T08:13:19.607Z,4.00
2022-11-07T08:14:19.418Z,4.00
2022-11-07T08:15:19.357Z,8.00
2022-11-07T08:16:19.340Z,4.00
2022-11-07T08:17:19.314Z,4.00
2022-11-07T08:18:19.314Z,12.00
2022-11-07T08:19:19.307Z,20.00
2022-11-07T08:20:19.306Z,16.00
2022-11-07T08:21:19.295Z,12.00
2022-11-07T08:22:19.286Z,16.00
2022-11-07T08:23:19.816Z,20.00
2022-11-07T08:24:19.233Z,12.00
2022-11-07T08:25:19.255Z,12.00
2022-11-07T08:26:19.232Z,12.00
2022-11-07T08:27:19.202Z,12.00
2022-11-07T08:28:19.209Z,12.00
2022-11-07T08:29:19.202Z,8.00
2022-11-07T08:30:19.193Z,12.00
2022-11-07T08:31:19.193Z,8.00
2022-11-07T08:32:19.172Z,12.00
2022-11-07T08:33:19.560Z,8.00
2022-11-07T08:34:19.210Z,12.00
2022-11-07T08:35:19.134Z,8.00
2022-11-07T08:36:19.110Z,4.00
2022-11-07T08:37:19.104Z,8.00
2022-11-07T08:38:19.097Z,4.00
2022-11-07T08:39:19.080Z,4.00
2022-11-07T08:40:19.063Z,4.00
2022-11-07T08:41:22.148Z,8.00
2022-11-07T08:42:19.064Z,8.00
2022-11-07T08:43:19.322Z,8.00
2022-11-07T08:44:19.024Z,8.00
2022-11-07T08:45:19.024Z,8.00
2022-11-07T08:46:19.026Z,8.00
2022-11-07T08:47:19.003Z,8.00
2022-11-07T08:48:19.003Z,8.00
2022-11-07T08:49:19.050Z,4.00
2022-11-07T08:50:18.956Z,8.00
2022-11-07T08:51:18.981Z,8.00
2022-11-07T08:52:18.964Z,8.00
2022-11-07T08:53:19.127Z,8.00
2022-11-07T08:54:18.929Z,4.00
2022-11-07T08:55:18.922Z,8.00
2022-11-07T08:56:18.910Z,8.00
2022-11-07T08:57:18.898Z,8.00
2022-11-07T08:58:18.890Z,8.00
2022-11-07T08:59:18.848Z,12.00
2022-11-07T09:00:18.858Z,8.00
2022-11-07T09:01:18.902Z,12.00
2022-11-07T09:04:19.878Z,8.00
2022-11-07T09:05:18.791Z,4.00
2022-11-07T09:06:18.789Z,4.00
2022-11-07T09:07:18.770Z,4.00
2022-11-07T09:08:18.778Z,0.00
2022-11-07T09:09:18.771Z,4.00
2022-11-07T09:10:18.786Z,4.00
2022-11-07T09:11:18.818Z,4.00
2022-11-07T09:12:18.748Z,4.00
2022-11-07T09:13:19.151Z,4.00
2022-11-07T09:14:18.729Z,0.00
2022-11-07T09:15:18.759Z,4.00
2022-11-07T09:16:18.709Z,4.00
2022-11-07T09:17:18.668Z,4.00
2022-11-07T09:18:18.646Z,4.00
2022-11-07T09:19:18.661Z,4.00
2022-11-07T09:20:18.629Z,4.00
2022-11-07T09:21:22.359Z,4.00
2022-11-07T09:22:18.621Z,0.00
2022-11-07T09:23:19.089Z,0.00
2022-11-07T09:24:18.577Z,0.00
2022-11-07T09:25:18.574Z,0.00
2022-11-07T09:26:18.580Z,0.00
2022-11-07T09:27:18.558Z,4.00
2022-11-07T09:28:18.539Z,4.00
2022-11-07T09:29:18.526Z,4.00
2022-11-07T09:30:18.529Z,4.00
2022-11-07T09:31:18.506Z,0.00
2022-11-07T09:32:43.411Z,4.00
2022-11-07T09:33:19.522Z,4.00
2022-11-07T09:34:18.514Z,4.00
2022-11-07T09:35:18.481Z,4.00
2022-11-07T09:36:18.467Z,4.00
2022-11-07T09:37:18.459Z,4.00
2022-11-07T09:38:18.444Z,4.00
2022-11-07T09:39:18.443Z,4.00
2022-11-07T09:40:18.415Z,8.00
2022-11-07T09:41:18.429Z,4.00
2022-11-07T09:42:18.386Z,8.00
2022-11-07T09:43:18.732Z,4.00
2022-11-07T09:44:18.367Z,16.00
2022-11-07T09:45:18.369Z,32.00
2022-11-07T09:46:18.358Z,28.00
2022-11-07T09:47:18.349Z,28.00
2022-11-07T09:48:18.337Z,24.00
2022-11-07T09:49:18.338Z,28.00
2022-11-07T09:50:18.299Z,28.00
2022-11-07T09:51:18.317Z,24.00
2022-11-07T09:52:18.294Z,24.00
2022-11-07T09:53:18.425Z,24.00
2022-11-07T09:54:18.278Z,24.00
2022-11-07T09:55:18.267Z,20.00
2022-11-07T09:56:18.233Z,24.00
2022-11-07T09:57:18.246Z,24.00
2022-11-07T09:58:18.229Z,24.00
2022-11-07T09:59:18.213Z,24.00
2022-11-07T10:00:18.243Z,24.00
2022-11-07T10:01:18.258Z,24.00
2022-11-07T10:02:18.241Z,24.00
2022-11-07T10:03:18.569Z,24.00
2022-11-07T10:04:24.609Z,24.00
2022-11-07T10:05:19.166Z,24.00
2022-11-07T10:06:23.083Z,28.00
2022-11-07T10:07:19.127Z,28.00
2022-11-07T10:08:18.115Z,28.00
2022-11-07T10:09:18.126Z,24.00
2022-11-07T10:10:18.092Z,28.00
2022-11-07T10:11:18.074Z,24.00
2022-11-07T10:12:18.064Z,28.00
2022-11-07T10:13:18.354Z,28.00
2022-11-07T10:14:18.085Z,28.00
2022-11-07T10:15:18.054Z,28.00
2022-11-07T10:16:18.035Z,28.00
2022-11-07T10:17:18.017Z,32.00
2022-11-07T10:18:18.009Z,32.00
2022-11-07T10:19:17.999Z,32.00
2022-11-07T10:20:22.017Z,32.00
2022-11-07T10:22:18.952Z,32.00
2022-11-07T10:23:18.351Z,32.00
2022-11-07T10:24:17.920Z,28.00
2022-11-07T10:25:17.935Z,28.00
2022-11-07T10:26:17.914Z,24.00
2022-11-07T10:27:17.925Z,28.00
2022-11-07T10:28:17.897Z,28.00
2022-11-07T10:29:17.903Z,28.00
2022-11-07T10:30:17.868Z,28.00
2022-11-07T10:31:17.850Z,32.00
2022-11-07T10:32:17.853Z,64.00
2022-11-07T10:33:18.109Z,68.00
2022-11-07T10:34:17.809Z,64.00
2022-11-07T10:35:17.806Z,60.00
2022-11-07T10:36:17.803Z,64.00
2022-11-07T10:37:17.799Z,68.00
2022-11-07T10:38:17.766Z,68.00
2022-11-07T10:39:17.759Z,64.00
2022-11-07T10:40:18.066Z,68.00
2022-11-07T10:41:17.933Z,68.00
2022-11-07T10:42:17.732Z,68.00
2022-11-07T10:43:18.159Z,64.00
2022-11-07T10:44:17.945Z,56.00
2022-11-07T10:45:17.698Z,60.00
2022-11-07T10:46:17.675Z,64.00
2022-11-07T10:47:17.822Z,72.00
2022-11-07T10:48:18.011Z,72.00
2022-11-07T10:49:17.714Z,68.00
2022-11-07T10:50:17.680Z,76.00
2022-11-07T10:51:17.671Z,72.00
2022-11-07T10:52:17.653Z,64.00
2022-11-07T10:53:17.599Z,68.00
2022-11-07T10:54:21.724Z,64.00
2022-11-07T10:55:17.631Z,60.00
2022-11-07T10:56:17.583Z,60.00
2022-11-07T10:57:17.570Z,56.00
2022-11-07T10:58:17.816Z,52.00
2022-11-07T10:59:17.551Z,32.00
2022-11-07T11:00:17.573Z,52.00
2022-11-07T11:01:17.565Z,56.00
2022-11-07T11:02:17.578Z,48.00
2022-11-07T11:03:17.526Z,44.00
2022-11-07T11:04:17.628Z,44.00
2022-11-07T11:05:17.465Z,40.00
2022-11-07T11:06:17.487Z,44.00
2022-11-07T11:07:17.470Z,44.00
2022-11-07T11:08:18.029Z,48.00
2022-11-07T11:09:17.440Z,56.00
2022-11-07T11:10:17.416Z,52.00
2022-11-07T11:11:17.423Z,48.00
2022-11-07T11:12:17.405Z,52.00
2022-11-07T11:13:17.437Z,56.00
2022-11-07T11:14:17.370Z,56.00
2022-11-07T11:15:17.356Z,64.00
2022-11-07T11:16:17.357Z,68.00
2022-11-07T11:17:17.363Z,64.00
2022-11-07T11:18:18.044Z,28.00
2022-11-07T11:19:17.317Z,60.00
2022-11-07T11:20:17.314Z,64.00
2022-11-07T11:21:17.284Z,60.00
2022-11-07T11:22:17.292Z,64.00
2022-11-07T11:23:17.705Z,64.00
2022-11-07T11:24:17.311Z,64.00
2022-11-07T11:25:17.257Z,40.00
2022-11-07T11:26:17.247Z,40.00
2022-11-07T11:27:17.219Z,52.00
2022-11-07T11:28:17.603Z,60.00
2022-11-07T11:29:17.416Z,60.00
2022-11-07T11:30:17.236Z,44.00
2022-11-07T11:31:17.175Z,36.00
2022-11-07T11:32:17.180Z,24.00
2022-11-07T11:33:18.536Z,20.00
2022-11-07T11:34:20.355Z,24.00
2022-11-07T11:35:17.372Z,28.00
2022-11-07T11:36:17.124Z,24.00
2022-11-07T11:37:17.243Z,36.00
2022-11-07T11:38:17.155Z,44.00
2022-11-07T11:39:17.096Z,36.00
2022-11-07T11:40:17.095Z,32.00
2022-11-07T11:41:17.064Z,48.00
2022-11-07T11:42:17.103Z,36.00
2022-11-07T11:43:17.421Z,32.00
2022-11-07T11:44:17.051Z,36.00
2022-11-07T11:45:17.025Z,28.00
2022-11-07T11:46:17.024Z,28.00
2022-11-07T11:47:17.005Z,44.00
2022-11-07T11:48:17.030Z,44.00
2022-11-07T11:49:16.991Z,44.00
2022-11-07T11:50:16.996Z,56.00
2022-11-07T11:51:17.007Z,60.00
2022-11-07T11:52:16.957Z,60.00
2022-11-07T11:53:17.470Z,60.00
2022-11-07T11:54:16.938Z,60.00
2022-11-07T11:55:17.361Z,64.00
2022-11-07T11:56:16.890Z,60.00
2022-11-07T11:57:17.009Z,68.00
2022-11-07T11:58:16.879Z,72.00
2022-11-07T11:59:16.885Z,64.00
2022-11-07T12:00:16.867Z,68.00
2022-11-07T12:01:16.901Z,60.00
2022-11-07T12:02:16.883Z,56.00
2022-11-07T12:03:17.237Z,52.00
2022-11-07T12:04:16.833Z,68.00
2022-11-07T12:05:16.878Z,64.00
2022-11-07T12:06:16.870Z,64.00
2022-11-07T12:07:16.797Z,64.00
2022-11-07T12:08:16.856Z,72.00
2022-11-07T12:09:18.290Z,76.00
2022-11-07T12:10:16.750Z,28.00
2022-11-07T12:11:16.862Z,68.00
2022-11-07T12:12:16.733Z,76.00
2022-11-07T12:13:17.259Z,40.00
2022-11-07T12:14:16.715Z,24.00
2022-11-07T12:15:16.723Z,48.00
2022-11-07T12:16:16.692Z,64.00
2022-11-07T12:17:16.666Z,32.00
2022-11-07T12:18:16.678Z,12.00
2022-11-07T12:19:16.651Z,20.00
2022-11-07T12:20:16.742Z,28.00
2022-11-07T12:21:16.798Z,28.00
2022-11-07T12:22:16.622Z,48.00
2022-11-07T12:23:16.993Z,48.00
2022-11-07T12:24:16.802Z,36.00
2022-11-07T12:25:16.592Z,36.00
2022-11-07T12:26:16.570Z,48.00
2022-11-07T12:27:16.663Z,3648.00
2022-11-07T12:28:16.555Z,4352.00
2022-11-07T12:29:16.614Z,3760.00
2022-11-07T12:30:16.535Z,1748.00
2022-11-07T12:31:16.539Z,728.00
2022-11-07T12:32:16.507Z,524.00
2022-11-07T12:33:16.760Z,1540.00
2022-11-07T12:34:16.505Z,2292.00
2022-11-07T12:35:16.532Z,2584.00
2022-11-07T12:36:16.472Z,2892.00
2022-11-07T12:37:16.456Z,2732.00
2022-11-07T12:38:16.438Z,1372.00
2022-11-07T12:39:16.428Z,2268.00
2022-11-07T12:40:16.407Z,2056.00
2022-11-07T12:41:16.437Z,2116.00
2022-11-07T12:42:16.421Z,920.00
2022-11-07T12:43:16.774Z,396.00
2022-11-07T12:44:16.357Z,384.00
2022-11-07T12:45:16.380Z,412.00
2022-11-07T12:46:16.350Z,388.00
2022-11-07T12:47:16.357Z,352.00
2022-11-07T12:48:16.396Z,260.00
2022-11-07T12:49:16.319Z,188.00
2022-11-07T12:50:16.310Z,228.00
2022-11-07T12:51:16.286Z,240.00
2022-11-07T12:52:16.298Z,160.00
2022-11-07T12:53:16.676Z,140.00
2022-11-07T12:54:16.726Z,164.00
2022-11-07T12:55:16.259Z,88.00
2022-11-07T12:56:16.272Z,92.00
2022-11-07T12:57:16.261Z,92.00
2022-11-07T12:58:16.224Z,80.00
2022-11-07T12:59:16.207Z,56.00
2022-11-07T13:00:16.196Z,64.00
2022-11-07T13:01:16.218Z,68.00
2022-11-07T13:02:16.308Z,72.00
2022-11-07T13:03:16.430Z,80.00
2022-11-07T13:04:16.148Z,72.00
2022-11-07T13:05:16.151Z,64.00
2022-11-07T13:06:16.141Z,56.00
2022-11-07T13:07:16.119Z,60.00
2022-11-07T13:08:16.116Z,64.00
2022-11-07T13:09:16.109Z,60.00
2022-11-07T13:10:16.074Z,56.00
2022-11-07T13:11:16.066Z,52.00
2022-11-07T13:12:16.078Z,56.00
2022-11-07T13:13:16.452Z,52.00
2022-11-07T13:14:19.627Z,36.00
2022-11-07T13:15:17.035Z,32.00
2022-11-07T13:16:16.332Z,32.00
2022-11-07T13:17:16.018Z,28.00